Time;durP1;ratioP1;P1;durP2;ratioP2;P2;SDS_P1;SDS_P2;PMS_P1;PMS_P2;Temp;Humidity;BMP_temperature;BMP_pressure;BME280_temperature;BME280_humidity;BME280_pressure;Samples;Min_cycle;Max_cycle;Signal;HPM_P1;HPM_P2
2022/01/18 00:00:16;;;;;;;45.58;7.82;;;;;;;;;;5029909;28;20049;-82
2022/01/18 00:02:42;;;;;;;52.83;8.00;;;;;;;;;;5028127;28;20041;-82
2022/01/18 00:05:13;;;;;;;27.95;6.15;;;;;;;;;;5026771;28;20038;-81
2022/01/18 00:07:39;;;;;;;46.97;8.05;;;;;;;;;;5042778;28;20461;-82
2022/01/18 00:10:05;;;;;;;35.67;7.05;;;;;;;;;;5048995;28;20035;-83
2022/01/18 00:15:29;;;;;;;53.25;8.52;;;;;;;;;;5044985;28;20084;-83
2022/01/18 00:18:07;;;;;;;39.92;7.32;;;;;;;;;;5051887;28;20465;-83
2022/01/18 00:20:48;;;;;;;43.50;7.82;;;;;;;;;;5048795;28;20053;-84
2022/01/18 00:23:14;;;;;;;40.95;7.65;;;;;;;;;;5029410;28;20041;-83
2022/01/18 00:25:43;;;;;;;44.10;7.63;;;;;;;;;;5031758;28;20043;-82
2022/01/18 00:28:09;;;;;;;35.20;7.53;;;;;;;;;;5046406;28;20060;-82
2022/01/18 00:35:47;;;;;;;40.33;7.85;;;;;;;;;;5042703;28;20045;-83
2022/01/18 00:38:29;;;;;;;32.67;7.32;;;;;;;;;;5023854;28;20049;-82
2022/01/18 00:40:55;;;;;;;44.25;7.82;;;;;;;;;;5044245;28;20069;-83
2022/01/18 00:43:21;;;;;;;47.50;7.80;;;;;;;;;;5043913;28;20496;-82
2022/01/18 00:45:47;;;;;;;35.75;7.95;;;;;;;;;;5029695;28;20033;-81
2022/01/18 00:48:13;;;;;;;41.90;7.70;;;;;;;;;;5027171;28;20140;-83
2022/01/18 00:50:39;;;;;;;36.53;7.55;;;;;;;;;;5041847;28;20045;-82
2022/01/18 00:53:10;;;;;;;37.70;7.70;;;;;;;;;;5025383;28;20057;-80
2022/01/18 00:55:47;;;;;;;43.75;7.65;;;;;;;;;;5042969;28;20037;-81
2022/01/18 00:58:13;;;;;;;31.50;7.47;;;;;;;;;;5027800;28;20378;-81
2022/01/18 01:00:39;;;;;;;43.10;8.30;;;;;;;;;;5041575;28;20057;-81
2022/01/18 01:03:05;;;;;;;36.65;7.32;;;;;;;;;;5040233;28;20034;-81
2022/01/18 01:05:31;;;;;;;35.03;7.85;;;;;;;;;;5023230;28;20033;-82
2022/01/18 01:07:57;;;;;;;45.25;8.90;;;;;;;;;;5023679;28;20061;-81
2022/01/18 01:10:23;;;;;;;42.53;9.32;;;;;;;;;;5042564;28;20092;-82
2022/01/18 01:12:49;;;;;;;41.40;8.35;;;;;;;;;;5023607;28;20072;-82
2022/01/18 01:15:18;;;;;;;35.70;7.95;;;;;;;;;;5022957;28;20049;-82
2022/01/18 01:17:51;;;;;;;59.10;9.50;;;;;;;;;;5024418;28;20041;-81
2022/01/18 01:36:46;;;;;;;43.20;9.10;;;;;;;;;;5053152;28;20049;-80
2022/01/18 01:42:54;;;;;;;45.90;8.15;;;;;;;;;;5048890;28;20025;-80
2022/01/18 01:44:51;;;;;;;39.92;8.63;;;;;;;;;;5041936;28;20052;-81
2022/01/18 01:47:19;;;;;;;43.95;7.25;;;;;;;;;;5023273;28;20068;-82
2022/01/18 01:49:48;;;;;;;40.55;8.48;;;;;;;;;;5039983;28;20412;-81
2022/01/18 01:52:14;;;;;;;35.75;7.72;;;;;;;;;;5040512;28;20441;-81
2022/01/18 01:54:40;;;;;;;35.95;8.18;;;;;;;;;;5041758;28;20076;-83
2022/01/18 01:57:07;;;;;;;41.92;7.70;;;;;;;;;;5024601;28;20053;-82
2022/01/18 01:59:33;;;;;;;33.35;6.65;;;;;;;;;;5041864;28;20045;-82
2022/01/18 02:01:59;;;;;;;35.25;6.85;;;;;;;;;;5043514;28;20049;-82
2022/01/18 02:04:25;;;;;;;32.42;7.20;;;;;;;;;;5044450;28;20041;-81
2022/01/18 02:06:51;;;;;;;42.85;7.53;;;;;;;;;;5023877;28;20034;-81
2022/01/18 02:09:18;;;;;;;29.83;7.30;;;;;;;;;;5022314;28;20060;-82
2022/01/18 02:11:45;;;;;;;28.02;6.40;;;;;;;;;;5022511;28;20034;-82
2022/01/18 02:14:16;;;;;;;35.10;5.97;;;;;;;;;;5039569;28;20048;-83
2022/01/18 02:22:12;;;;;;;35.38;7.30;;;;;;;;;;5042572;28;20113;-81
2022/01/18 02:24:38;;;;;;;36.55;6.82;;;;;;;;;;5025504;28;20041;-82
2022/01/18 02:27:04;;;;;;;38.47;7.20;;;;;;;;;;5041604;28;20353;-81
2022/01/18 02:29:30;;;;;;;34.33;6.60;;;;;;;;;;5042544;28;20041;-82
2022/01/18 02:31:56;;;;;;;34.03;6.55;;;;;;;;;;5024090;28;20049;-82
2022/01/18 02:34:22;;;;;;;32.53;6.82;;;;;;;;;;5021573;28;20056;-81
2022/01/18 02:36:48;;;;;;;33.30;6.68;;;;;;;;;;5045148;28;20132;-82
2022/01/18 02:39:18;;;;;;;27.70;4.95;;;;;;;;;;5056416;28;20048;-82
2022/01/18 02:41:49;;;;;;;33.33;5.88;;;;;;;;;;5058132;28;20029;-83
2022/01/18 02:44:15;;;;;;;33.00;5.97;;;;;;;;;;5041691;28;20034;-81
2022/01/18 02:46:44;;;;;;;27.70;5.75;;;;;;;;;;5041523;28;20030;-81
2022/01/18 02:49:10;;;;;;;37.40;6.35;;;;;;;;;;5041256;28;20021;-82
2022/01/18 02:51:36;;;;;;;33.88;6.15;;;;;;;;;;5049369;28;20037;-83
2022/01/18 02:54:06;;;;;;;28.92;6.03;;;;;;;;;;5032339;28;20033;-83
2022/01/18 02:56:44;;;;;;;22.67;5.90;;;;;;;;;;5051461;28;20129;-83
2022/01/18 03:04:21;;;;;;;25.23;6.47;;;;;;;;;;5062219;28;20025;-81
2022/01/18 03:06:47;;;;;;;38.75;8.23;;;;;;;;;;5061335;28;20029;-83
2022/01/18 03:09:13;;;;;;;28.23;7.03;;;;;;;;;;5056398;28;20065;-82
2022/01/18 03:11:39;;;;;;;33.67;6.72;;;;;;;;;;5054569;28;20049;-82
2022/01/18 03:14:06;;;;;;;31.65;7.80;;;;;;;;;;5037558;28;20045;-82
2022/01/18 03:16:32;;;;;;;33.10;8.02;;;;;;;;;;5052339;28;20037;-83
2022/01/18 03:18:58;;;;;;;30.00;7.47;;;;;;;;;;5032336;28;20133;-82
2022/01/18 03:21:24;;;;;;;37.28;7.03;;;;;;;;;;5059421;28;20045;-80
2022/01/18 03:23:59;;;;;;;32.88;8.52;;;;;;;;;;5051683;28;20041;-82
2022/01/18 03:26:33;;;;;;;35.83;8.75;;;;;;;;;;5031604;28;20026;-81
2022/01/18 03:28:58;;;;;;;;;;;;;;;;;;5055666;28;20053;-81
2022/01/18 03:31:24;;;;;;;28.42;7.85;;;;;;;;;;5055026;28;19908;-82
2022/01/18 03:33:50;;;;;;;40.88;9.02;;;;;;;;;;5037303;28;20037;-82
2022/01/18 03:36:16;;;;;;;24.45;7.95;;;;;;;;;;5053714;28;20050;-82
2022/01/18 03:38:42;;;;;;;26.67;8.77;;;;;;;;;;5037230;28;20049;-82
2022/01/18 03:41:08;;;;;;;27.02;8.27;;;;;;;;;;5037077;28;20033;-83
2022/01/18 03:43:35;;;;;;;37.45;9.07;;;;;;;;;;5036427;28;20037;-81
2022/01/18 03:46:04;;;;;;;29.70;9.63;;;;;;;;;;5051782;28;20037;-82
2022/01/18 03:48:38;;;;;;;41.13;12.02;;;;;;;;;;5053677;28;20041;-82
2022/01/18 03:51:05;;;;;;;34.60;11.27;;;;;;;;;;5037135;28;20045;-82
2022/01/18 03:53:31;;;;;;;42.67;12.73;;;;;;;;;;5054840;28;20037;-83
2022/01/18 03:55:57;;;;;;;46.92;12.45;;;;;;;;;;5051255;28;20041;-81
2022/01/18 03:58:23;;;;;;;48.33;13.68;;;;;;;;;;5032513;28;20079;-82
2022/01/18 04:00:50;;;;;;;39.28;13.00;;;;;;;;;;5048531;28;20049;-82
2022/01/18 04:03:16;;;;;;;65.07;16.15;;;;;;;;;;5049952;28;20067;-82
2022/01/18 04:05:42;;;;;;;47.70;19.50;;;;;;;;;;5031299;28;20052;-81
2022/01/18 04:08:08;;;;;;;48.03;18.42;;;;;;;;;;5032136;28;20042;-82
2022/01/18 04:10:34;;;;;;;58.78;21.67;;;;;;;;;;5047545;28;20445;-82
2022/01/18 04:13:01;;;;;;;59.22;23.23;;;;;;;;;;5028796;28;20440;-82
2022/01/18 04:15:28;;;;;;;59.92;25.80;;;;;;;;;;5046738;28;20102;-81
2022/01/18 04:26:01;;;;;;;65.25;25.70;;;;;;;;;;5045991;28;20038;-81
2022/01/18 04:30:56;;;;;;;61.10;25.70;;;;;;;;;;5053643;28;20069;-82
2022/01/18 04:33:22;;;;;;;70.85;25.92;;;;;;;;;;5031570;28;20346;-82
2022/01/18 04:35:48;;;;;;;63.67;25.38;;;;;;;;;;5030361;28;20079;-82
2022/01/18 04:38:14;;;;;;;66.20;25.20;;;;;;;;;;5028291;28;20091;-80
2022/01/18 04:40:43;;;;;;;58.55;23.98;;;;;;;;;;5026401;28;20424;-82
2022/01/18 04:48:24;;;;;;;60.20;22.15;;;;;;;;;;5045798;28;20041;-80
2022/01/18 04:50:50;;;;;;;67.00;23.35;;;;;;;;;;5045678;28;20053;-83
2022/01/18 04:53:17;;;;;;;68.95;22.25;;;;;;;;;;5029710;28;20045;-81
2022/01/18 04:55:43;;;;;;;52.70;20.05;;;;;;;;;;5030723;28;20041;-82
2022/01/18 04:58:09;;;;;;;54.15;19.90;;;;;;;;;;5047861;28;20041;-82
2022/01/18 05:00:35;;;;;;;50.28;18.05;;;;;;;;;;5046331;28;20041;-82
2022/01/18 05:03:01;;;;;;;52.70;17.77;;;;;;;;;;5030442;28;20453;-83
2022/01/18 05:05:30;;;;;;;52.63;18.00;;;;;;;;;;5031039;28;20043;-83
2022/01/18 05:07:59;;;;;;;41.78;17.30;;;;;;;;;;5033828;28;20048;-82
2022/01/18 05:10:28;;;;;;;50.20;17.48;;;;;;;;;;5047252;28;20059;-82
2022/01/18 05:12:55;;;;;;;46.25;17.38;;;;;;;;;;5030728;28;20045;-81
2022/01/18 05:23:03;;;;;;;57.90;19.63;;;;;;;;;;5044903;28;20038;-82
2022/01/18 05:25:30;;;;;;;44.47;19.70;;;;;;;;;;5029459;28;20116;-84
2022/01/18 05:28:00;;;;;;;54.38;20.13;;;;;;;;;;5045745;28;20656;-82
2022/01/18 05:30:26;;;;;;;47.60;19.90;;;;;;;;;;5029267;28;20053;-81
2022/01/18 05:32:52;;;;;;;57.85;20.30;;;;;;;;;;5027385;28;20045;-81
2022/01/18 05:35:19;;;;;;;56.50;19.67;;;;;;;;;;5043622;28;20152;-80
2022/01/18 05:37:48;;;;;;;58.60;20.05;;;;;;;;;;5044223;28;20045;-82
2022/01/18 05:40:15;;;;;;;60.05;18.75;;;;;;;;;;5024791;28;20460;-82
2022/01/18 05:42:41;;;;;;;53.80;19.15;;;;;;;;;;5023649;28;20057;-80
2022/01/18 05:45:08;;;;;;;48.38;18.60;;;;;;;;;;5039998;28;20096;-81
2022/01/18 05:47:34;;;;;;;49.45;17.98;;;;;;;;;;5041317;28;20029;-80
2022/01/18 05:50:01;;;;;;;47.08;16.42;;;;;;;;;;5042985;28;20041;-81
2022/01/18 05:52:27;;;;;;;51.83;17.65;;;;;;;;;;5048679;28;20061;-80
2022/01/18 05:54:53;;;;;;;48.38;18.95;;;;;;;;;;5042804;28;20041;-79
2022/01/18 05:57:19;;;;;;;45.85;18.60;;;;;;;;;;5042921;28;20112;-79
2022/01/18 05:59:47;;;;;;;49.38;19.55;;;;;;;;;;5024817;28;20045;-79
2022/01/18 06:02:16;;;;;;;60.80;19.02;;;;;;;;;;5040853;28;20068;-78
2022/01/18 06:07:26;;;;;;;56.88;21.35;;;;;;;;;;5040793;28;20041;-79
2022/01/18 06:09:56;;;;;;;63.35;22.02;;;;;;;;;;5024423;28;20041;-79
2022/01/18 06:12:26;;;;;;;56.17;21.98;;;;;;;;;;5041616;28;20042;-79
2022/01/18 06:14:52;;;;;;;55.65;22.45;;;;;;;;;;5025885;28;20056;-78
2022/01/18 06:17:18;;;;;;;65.80;23.92;;;;;;;;;;5044845;28;20037;-79
2022/01/18 06:19:44;;;;;;;49.42;24.55;;;;;;;;;;5027866;28;20053;-81
2022/01/18 06:22:10;;;;;;;55.80;25.38;;;;;;;;;;5042498;28;20037;-79
2022/01/18 06:24:36;;;;;;;60.17;25.33;;;;;;;;;;5025309;28;20041;-78
2022/01/18 06:27:02;;;;;;;69.03;24.85;;;;;;;;;;5026141;28;20038;-79
2022/01/18 06:29:28;;;;;;;66.47;25.88;;;;;;;;;;5045112;28;20065;-79
2022/01/18 06:31:54;;;;;;;59.75;23.83;;;;;;;;;;5025495;28;20037;-81
2022/01/18 06:34:20;;;;;;;65.82;23.88;;;;;;;;;;5026008;28;20072;-79
2022/01/18 06:36:46;;;;;;;63.47;23.48;;;;;;;;;;5055695;28;20045;-79
2022/01/18 06:39:16;;;;;;;75.43;26.05;;;;;;;;;;5032799;28;20050;-79
2022/01/18 06:41:42;;;;;;;61.47;25.67;;;;;;;;;;5047100;28;20041;-80
2022/01/18 06:44:08;;;;;;;65.68;28.33;;;;;;;;;;5033247;28;20045;-81
2022/01/18 06:46:34;;;;;;;69.75;26.23;;;;;;;;;;5032486;28;20033;-80
2022/01/18 06:49:00;;;;;;;63.67;28.48;;;;;;;;;;5043443;28;20033;-80
2022/01/18 06:51:27;;;;;;;75.82;28.88;;;;;;;;;;5045335;28;20041;-80
2022/01/18 06:53:53;;;;;;;76.05;29.52;;;;;;;;;;5042840;28;20038;-82
2022/01/18 06:56:20;;;;;;;69.65;30.13;;;;;;;;;;5043179;28;20041;-80
2022/01/18 06:58:46;;;;;;;77.53;29.98;;;;;;;;;;5033014;28;20047;-84
2022/01/18 07:01:12;;;;;;;72.30;30.80;;;;;;;;;;5026192;28;20034;-80
2022/01/18 07:03:39;;;;;;;77.93;30.58;;;;;;;;;;5024702;28;20030;-80
2022/01/18 07:06:05;;;;;;;78.38;30.45;;;;;;;;;;5040312;28;20044;-80
2022/01/18 07:08:31;;;;;;;70.68;30.42;;;;;;;;;;5023262;28;20052;-79
2022/01/18 07:10:57;;;;;;;72.95;30.48;;;;;;;;;;5043149;28;20038;-80
2022/01/18 07:13:23;;;;;;;68.50;30.73;;;;;;;;;;5043134;28;20045;-81
2022/01/18 07:15:49;;;;;;;70.10;32.35;;;;;;;;;;5043987;28;20457;-80
2022/01/18 07:18:15;;;;;;;78.60;32.03;;;;;;;;;;5024327;28;20073;-79
2022/01/18 07:20:41;;;;;;;77.43;31.40;;;;;;;;;;5044829;28;20042;-80
2022/01/18 07:23:12;;;;;;;76.55;30.02;;;;;;;;;;5057449;28;20050;-79
2022/01/18 07:25:42;;;;;;;83.43;32.67;;;;;;;;;;5044650;28;20445;-80
2022/01/18 07:28:09;;;;;;;75.47;33.33;;;;;;;;;;5022711;28;20104;-81
2022/01/18 07:30:35;;;;;;;81.90;33.55;;;;;;;;;;5022917;28;20030;-82
2022/01/18 07:33:01;;;;;;;80.53;33.60;;;;;;;;;;5038174;28;20033;-80
2022/01/18 07:35:28;;;;;;;88.30;35.33;;;;;;;;;;5021306;28;20033;-80
2022/01/18 07:37:56;;;;;;;95.82;35.30;;;;;;;;;;5021975;28;20045;-80
2022/01/18 07:40:22;;;;;;;90.40;34.28;;;;;;;;;;5023235;28;20041;-81
2022/01/18 07:42:48;;;;;;;70.65;32.30;;;;;;;;;;5027673;28;20095;-80
2022/01/18 07:45:14;;;;;;;83.82;35.17;;;;;;;;;;5043743;28;20045;-80
2022/01/18 07:47:40;;;;;;;86.53;34.78;;;;;;;;;;5044665;28;20033;-81
2022/01/18 07:50:06;;;;;;;82.03;33.55;;;;;;;;;;5026491;28;20041;-80
2022/01/18 07:52:35;;;;;;;73.75;32.97;;;;;;;;;;5043174;28;20093;-79
2022/01/18 07:55:01;;;;;;;76.43;32.30;;;;;;;;;;5042367;28;20088;-81
2022/01/18 07:57:27;;;;;;;82.57;34.13;;;;;;;;;;5025149;28;20041;-80
2022/01/18 07:59:53;;;;;;;79.82;34.95;;;;;;;;;;5040964;28;20042;-80
2022/01/18 08:02:19;;;;;;;78.80;34.78;;;;;;;;;;5040949;28;20038;-79
2022/01/18 08:04:45;;;;;;;77.95;32.92;;;;;;;;;;5024514;28;20112;-81
2022/01/18 08:07:11;;;;;;;85.35;35.35;;;;;;;;;;5051787;28;20061;-81
2022/01/18 08:09:37;;;;;;;80.28;34.50;;;;;;;;;;5044239;28;20033;-80
2022/01/18 08:12:04;;;;;;;79.03;35.65;;;;;;;;;;5049633;28;20041;-80
2022/01/18 08:14:31;;;;;;;83.95;36.65;;;;;;;;;;5030036;28;20099;-80
2022/01/18 08:17:01;;;;;;;82.72;37.15;;;;;;;;;;5029317;28;20042;-80
2022/01/18 08:19:28;;;;;;;93.57;38.33;;;;;;;;;;5046837;28;20089;-81
2022/01/18 08:21:54;;;;;;;95.65;38.30;;;;;;;;;;5029558;28;20041;-79
2022/01/18 08:24:20;;;;;;;84.03;37.67;;;;;;;;;;5045844;28;20037;-81
2022/01/18 08:26:46;;;;;;;82.00;37.75;;;;;;;;;;5047468;28;20101;-81
2022/01/18 08:29:14;;;;;;;81.57;38.50;;;;;;;;;;5056245;28;20082;-81
2022/01/18 08:31:41;;;;;;;96.78;39.65;;;;;;;;;;5037943;28;20037;-81
2022/01/18 08:34:07;;;;;;;90.20;37.88;;;;;;;;;;5038847;28;20067;-81
2022/01/18 08:36:33;;;;;;;84.65;39.38;;;;;;;;;;5056385;28;20109;-82
2022/01/18 08:39:00;;;;;;;84.25;39.65;;;;;;;;;;5033616;28;20076;-80
2022/01/18 08:41:26;;;;;;;87.38;39.42;;;;;;;;;;5044070;28;20034;-82
2022/01/18 08:43:53;;;;;;;83.93;38.10;;;;;;;;;;5028311;28;20048;-80
2022/01/18 08:46:18;;;;;;;90.35;38.67;;;;;;;;;;5044876;28;20496;-79
2022/01/18 08:48:44;;;;;;;91.07;38.67;;;;;;;;;;5026942;28;20108;-81
2022/01/18 08:51:11;;;;;;;81.63;37.45;;;;;;;;;;5043470;28;20098;-81
2022/01/18 08:53:37;;;;;;;90.72;37.38;;;;;;;;;;5043613;28;20049;-82
2022/01/18 08:56:04;;;;;;;75.97;36.55;;;;;;;;;;5035969;28;20042;-82
2022/01/18 08:58:31;;;;;;;86.85;38.58;;;;;;;;;;5041641;28;20021;-79
2022/01/18 09:00:57;;;;;;;79.18;36.85;;;;;;;;;;5047563;28;20076;-78
2022/01/18 09:03:23;;;;;;;89.68;37.90;;;;;;;;;;5028243;28;20041;-79
2022/01/18 09:05:50;;;;;;;82.57;37.05;;;;;;;;;;5027925;28;20041;-79
2022/01/18 09:08:18;;;;;;;83.95;38.00;;;;;;;;;;5028064;28;20034;-79
2022/01/18 09:10:46;;;;;;;85.57;38.70;;;;;;;;;;5028728;28;20084;-77
2022/01/18 09:13:12;;;;;;;77.55;36.35;;;;;;;;;;5045173;28;20113;-78
2022/01/18 09:15:38;;;;;;;79.32;35.45;;;;;;;;;;5044903;28;20038;-79
2022/01/18 09:18:05;;;;;;;89.88;36.80;;;;;;;;;;5043787;28;20174;-81
2022/01/18 09:20:31;;;;;;;92.90;37.42;;;;;;;;;;5043207;28;20520;-81
2022/01/18 09:22:57;;;;;;;84.00;36.88;;;;;;;;;;5024668;28;20480;-79
2022/01/18 09:25:24;;;;;;;83.18;37.30;;;;;;;;;;5041840;28;20032;-81
2022/01/18 09:27:50;;;;;;;74.13;33.63;;;;;;;;;;5041357;28;20037;-78
2022/01/18 09:30:16;;;;;;;81.20;35.83;;;;;;;;;;5024076;28;20400;-78
2022/01/18 09:32:43;;;;;;;74.93;34.20;;;;;;;;;;5040289;28;20064;-79
2022/01/18 09:35:09;;;;;;;73.25;34.22;;;;;;;;;;5042979;28;20042;-78
2022/01/18 09:37:35;;;;;;;79.68;34.50;;;;;;;;;;5039534;28;20041;-78
2022/01/18 09:40:02;;;;;;;82.85;34.08;;;;;;;;;;5040414;28;20032;-79
2022/01/18 09:42:33;;;;;;;66.80;31.00;;;;;;;;;;5026007;28;20041;-81
2022/01/18 09:45:09;;;;;;;71.90;32.10;;;;;;;;;;5053607;28;20044;-78
2022/01/18 09:47:35;;;;;;;77.85;32.33;;;;;;;;;;5055142;28;20037;-78
2022/01/18 09:50:02;;;;;;;81.25;34.92;;;;;;;;;;5035927;28;20041;-78
2022/01/18 09:52:27;;;;;;;81.85;34.67;;;;;;;;;;5035482;28;20052;-81
2022/01/18 09:54:53;;;;;;;78.32;33.72;;;;;;;;;;5036019;28;20033;-79
2022/01/18 09:57:19;;;;;;;71.45;32.78;;;;;;;;;;5024437;28;20045;-81
2022/01/18 09:59:45;;;;;;;77.90;32.50;;;;;;;;;;5040225;28;20056;-78
2022/01/18 10:02:12;;;;;;;74.75;32.92;;;;;;;;;;5042262;28;20044;-78
2022/01/18 10:04:42;;;;;;;76.05;33.95;;;;;;;;;;5023476;28;20037;-78
2022/01/18 10:07:08;;;;;;;77.70;30.98;;;;;;;;;;5024854;28;20042;-78
2022/01/18 10:09:34;;;;;;;66.53;30.98;;;;;;;;;;5024054;28;20047;-78
2022/01/18 10:12:08;;;;;;;63.13;30.25;;;;;;;;;;5040251;28;20095;-78
2022/01/18 10:14:35;;;;;;;72.45;30.52;;;;;;;;;;5040406;28;20037;-78
2022/01/18 10:17:01;;;;;;;75.75;29.67;;;;;;;;;;5040103;28;20530;-81
2022/01/18 10:19:40;;;;;;;70.35;29.50;;;;;;;;;;5038280;28;20476;-82
2022/01/18 10:22:14;;;;;;;69.00;30.42;;;;;;;;;;5024762;28;20120;-80
2022/01/18 10:24:40;;;;;;;71.65;27.90;;;;;;;;;;5039071;28;20091;-80
2022/01/18 10:27:06;;;;;;;69.88;29.85;;;;;;;;;;5040253;28;20037;-79
2022/01/18 10:29:35;;;;;;;63.08;28.77;;;;;;;;;;5040374;28;20045;-81
2022/01/18 10:32:11;;;;;;;70.38;28.52;;;;;;;;;;5027475;28;20053;-83
2022/01/18 10:37:12;;;;;;;64.75;28.60;;;;;;;;;;5043939;28;20061;-79
2022/01/18 10:39:39;;;;;;;68.03;27.48;;;;;;;;;;5039962;28;20072;-79
2022/01/18 10:42:15;;;;;;;57.53;25.85;;;;;;;;;;5024902;28;20095;-79
2022/01/18 10:44:41;;;;;;;61.42;26.08;;;;;;;;;;5041928;28;20037;-79
2022/01/18 10:47:08;;;;;;;56.15;25.85;;;;;;;;;;5041506;28;20500;-79
2022/01/18 10:49:37;;;;;;;63.83;27.05;;;;;;;;;;5039281;28;20038;-83
2022/01/18 10:52:13;;;;;;;55.17;25.35;;;;;;;;;;5038846;28;20103;-82
2022/01/18 10:54:40;;;;;;;54.10;25.80;;;;;;;;;;5039921;28;20505;-82
2022/01/18 10:57:06;;;;;;;64.20;26.20;;;;;;;;;;5039261;28;20103;-80
2022/01/18 10:59:33;;;;;;;59.67;25.20;;;;;;;;;;5040366;28;20091;-78
2022/01/18 11:02:06;;;;;;;51.35;24.20;;;;;;;;;;5023105;28;20037;-80
2022/01/18 11:04:32;;;;;;;;;;;;;;;;;;5024724;28;20025;-78
2022/01/18 11:06:59;;;;;;;59.60;24.42;;;;;;;;;;5042728;28;20012;-79
2022/01/18 11:09:25;;;;;;;55.40;23.63;;;;;;;;;;5024711;28;20120;-79
2022/01/18 11:11:51;;;;;;;52.90;24.38;;;;;;;;;;5024234;28;20061;-79
2022/01/18 11:14:18;;;;;;;55.40;24.77;;;;;;;;;;5041707;28;20045;-80
2022/01/18 11:16:48;;;;;;;54.00;23.50;;;;;;;;;;5028979;28;20037;-78
2022/01/18 11:21:52;;;;;;;58.88;24.55;;;;;;;;;;5047919;28;20045;-79
2022/01/18 11:24:18;;;;;;;55.20;23.95;;;;;;;;;;5027097;28;20045;-79
2022/01/18 11:26:45;;;;;;;56.63;23.58;;;;;;;;;;5043081;28;20112;-82
2022/01/18 11:29:12;;;;;;;53.80;23.05;;;;;;;;;;5026779;28;20034;-79
2022/01/18 11:31:38;;;;;;;49.45;21.67;;;;;;;;;;5026365;28;20091;-80
2022/01/18 11:34:05;;;;;;;49.38;21.98;;;;;;;;;;5042809;28;20049;-79
2022/01/18 11:36:33;;;;;;;49.08;21.33;;;;;;;;;;5043398;28;20136;-78
2022/01/18 11:39:01;;;;;;;51.58;21.75;;;;;;;;;;5042611;28;20033;-78
2022/01/18 11:41:28;;;;;;;48.03;19.67;;;;;;;;;;5025875;28;20044;-79
2022/01/18 11:43:55;;;;;;;52.22;21.40;;;;;;;;;;5025285;28;20113;-78
2022/01/18 11:46:34;;;;;;;49.50;20.65;;;;;;;;;;5024815;28;20093;-79
2022/01/18 11:49:14;;;;;;;48.83;22.58;;;;;;;;;;5041007;28;20037;-79
2022/01/18 11:51:45;;;;;;;50.25;19.58;;;;;;;;;;5024990;28;20103;-81
2022/01/18 11:54:26;;;;;;;43.03;17.83;;;;;;;;;;5025248;28;20069;-80
2022/01/18 11:56:53;;;;;;;45.83;18.52;;;;;;;;;;5041066;28;20406;-82
2022/01/18 11:59:19;;;;;;;50.47;19.08;;;;;;;;;;5025564;28;20041;-81
2022/01/18 12:01:46;;;;;;;54.65;19.60;;;;;;;;;;5042494;28;20060;-82
2022/01/18 12:04:12;;;;;;;45.50;18.90;;;;;;;;;;5047221;28;20040;-81
2022/01/18 12:06:47;;;;;;;40.22;17.75;;;;;;;;;;5029537;28;20116;-82
2022/01/18 12:09:35;;;;;;;38.22;16.33;;;;;;;;;;5024754;28;20037;-79
2022/01/18 12:12:04;;;;;;;38.08;15.45;;;;;;;;;;5024545;28;20034;-83
2022/01/18 12:14:33;;;;;;;34.88;15.30;;;;;;;;;;5040187;28;20421;-80
2022/01/18 12:17:17;;;;;;;41.30;16.23;;;;;;;;;;5042276;28;20041;-83
2022/01/18 12:19:47;;;;;;;38.67;15.80;;;;;;;;;;5039635;28;20080;-81
2022/01/18 12:22:14;;;;;;;40.15;15.98;;;;;;;;;;5024236;28;20048;-87
2022/01/18 12:24:46;;;;;;;43.97;16.42;;;;;;;;;;5024121;28;20116;-82
2022/01/18 12:27:32;;;;;;;36.22;15.07;;;;;;;;;;5040606;28;20072;-80
2022/01/18 12:30:25;;;;;;;37.22;15.05;;;;;;;;;;5024905;28;20049;-83
2022/01/18 12:33:10;;;;;;;37.47;13.57;;;;;;;;;;5042106;28;20113;-81
2022/01/18 12:35:36;;;;;;;34.88;12.88;;;;;;;;;;5041683;28;20053;-80
2022/01/18 12:38:06;;;;;;;33.88;13.23;;;;;;;;;;5024008;28;20358;-82
2022/01/18 12:40:35;;;;;;;42.30;13.60;;;;;;;;;;5024433;28;20171;-82
2022/01/18 12:45:33;;;;;;;38.30;13.55;;;;;;;;;;5043487;28;20053;-83
2022/01/18 12:48:08;;;;;;;36.00;13.00;;;;;;;;;;5042327;28;20045;-82
2022/01/18 12:50:55;;;;;;;29.38;12.35;;;;;;;;;;5045216;28;20084;-82
2022/01/18 12:53:25;;;;;;;30.23;12.02;;;;;;;;;;5047744;28;20049;-82
2022/01/18 12:55:58;;;;;;;33.17;13.00;;;;;;;;;;5041732;28;20037;-80
2022/01/18 12:58:24;;;;;;;31.20;12.82;;;;;;;;;;5034578;28;20061;-84
2022/01/18 13:00:51;;;;;;;32.53;12.23;;;;;;;;;;5049194;28;20045;-82
2022/01/18 13:03:25;;;;;;;34.83;12.65;;;;;;;;;;5030804;28;20064;-80
2022/01/18 13:05:51;;;;;;;31.35;12.65;;;;;;;;;;5028079;28;20034;-83
2022/01/18 13:08:18;;;;;;;30.80;12.10;;;;;;;;;;5043071;28;20067;-81
2022/01/18 13:10:48;;;;;;;31.50;13.52;;;;;;;;;;5043948;28;20049;-84
2022/01/18 13:13:15;;;;;;;30.23;11.90;;;;;;;;;;5042311;28;20051;-81
2022/01/18 13:26:40;;;;;;;28.48;8.85;;;;;;;;;;4999532;28;20074;-81
2022/01/18 13:29:13;;;;;;;25.85;8.73;;;;;;;;;;4983655;28;20559;-83
2022/01/18 13:31:41;;;;;;;24.30;8.10;;;;;;;;;;4979653;28;20042;-84
2022/01/18 13:34:11;;;;;;;22.90;7.18;;;;;;;;;;4985221;28;20042;-82
2022/01/18 13:36:55;;;;;;;20.45;7.20;;;;;;;;;;5000998;28;20042;-83
2022/01/18 13:39:23;;;;;;;24.42;7.90;;;;;;;;;;4984405;28;20054;-79
2022/01/18 13:41:49;;;;;;;22.05;7.22;;;;;;;;;;4984064;28;20042;-83
2022/01/18 13:44:15;;;;;;;20.08;7.18;;;;;;;;;;4984318;28;20042;-82
2022/01/18 13:46:41;;;;;;;20.73;6.10;;;;;;;;;;4984412;28;20042;-82
2022/01/18 13:49:07;;;;;;;22.83;6.10;;;;;;;;;;4984253;28;20085;-81
2022/01/18 13:51:33;;;;;;;26.65;6.15;;;;;;;;;;5002519;28;20070;-82
2022/01/18 13:54:05;;;;;;;20.90;6.13;;;;;;;;;;5002988;28;20042;-82
2022/01/18 13:56:31;;;;;;;20.02;6.20;;;;;;;;;;4988030;28;20053;-84
2022/01/18 13:59:01;;;;;;;18.98;6.40;;;;;;;;;;5004863;28;20043;-83
2022/01/18 14:01:28;;;;;;;22.30;6.63;;;;;;;;;;4991669;28;20046;-83
2022/01/18 14:03:55;;;;;;;20.67;6.70;;;;;;;;;;4994403;28;20042;-82
2022/01/18 14:06:21;;;;;;;21.48;6.90;;;;;;;;;;5008090;28;20101;-82
2022/01/18 14:08:51;;;;;;;17.75;7.00;;;;;;;;;;4987189;28;20053;-85
2022/01/18 14:11:18;;;;;;;19.55;6.13;;;;;;;;;;4988260;28;20391;-83
2022/01/18 14:13:44;;;;;;;17.27;6.25;;;;;;;;;;4987043;28;20132;-83
2022/01/18 14:16:20;;;;;;;19.33;6.78;;;;;;;;;;5004354;28;20043;-82
2022/01/18 14:19:01;;;;;;;19.02;7.20;;;;;;;;;;4995485;28;20107;-84
2022/01/18 14:21:27;;;;;;;18.83;7.03;;;;;;;;;;5042275;28;20361;-83
2022/01/18 14:24:12;;;;;;;17.80;6.75;;;;;;;;;;5039911;28;20029;-82
2022/01/18 14:26:41;;;;;;;17.05;7.18;;;;;;;;;;5039388;28;20103;-83
2022/01/18 14:29:07;;;;;;;21.98;7.05;;;;;;;;;;5040807;28;20034;-84
2022/01/18 14:31:33;;;;;;;18.45;7.38;;;;;;;;;;5040979;28;20037;-82
2022/01/18 14:33:59;;;;;;;18.95;6.97;;;;;;;;;;5042500;28;20041;-83
2022/01/18 14:36:27;;;;;;;19.95;7.05;;;;;;;;;;5059713;28;20060;-84
2022/01/18 14:39:06;;;;;;;17.77;7.13;;;;;;;;;;5041929;28;20056;-84
2022/01/18 14:41:32;;;;;;;29.05;7.72;;;;;;;;;;5043258;28;20072;-84
2022/01/18 14:44:04;;;;;;;22.65;7.53;;;;;;;;;;5059312;28;20038;-84
2022/01/18 14:49:16;;;;;;;24.17;8.43;;;;;;;;;;5025999;28;20042;-82
2022/01/18 14:51:42;;;;;;;21.83;8.75;;;;;;;;;;5061287;28;20041;-82
2022/01/18 14:54:09;;;;;;;25.10;8.52;;;;;;;;;;5064756;28;20445;-83
2022/01/18 14:56:35;;;;;;;21.55;8.20;;;;;;;;;;5046029;28;20033;-83
2022/01/18 14:59:01;;;;;;;19.98;6.97;;;;;;;;;;5046728;28;20041;-82
2022/01/18 15:01:27;;;;;;;25.17;7.50;;;;;;;;;;5063469;28;20049;-83
2022/01/18 15:03:53;;;;;;;16.45;6.97;;;;;;;;;;5047691;28;20421;-83
2022/01/18 15:06:19;;;;;;;20.38;7.70;;;;;;;;;;5064630;28;20044;-81
2022/01/18 15:08:45;;;;;;;18.35;7.38;;;;;;;;;;5061691;28;20041;-81
2022/01/18 15:11:11;;;;;;;20.85;7.57;;;;;;;;;;5063450;28;20037;-82
2022/01/18 15:13:37;;;;;;;17.25;7.47;;;;;;;;;;5046571;28;20045;-82
2022/01/18 15:16:03;;;;;;;19.02;7.47;;;;;;;;;;5063497;28;20037;-82
2022/01/18 15:18:29;;;;;;;18.35;6.97;;;;;;;;;;5044244;28;20048;-81
2022/01/18 15:20:55;;;;;;;26.35;8.07;;;;;;;;;;5060349;28;20041;-82
2022/01/18 15:23:21;;;;;;;22.10;7.82;;;;;;;;;;5048875;28;20091;-81
2022/01/18 15:25:47;;;;;;;25.90;8.40;;;;;;;;;;5044017;28;20042;-82
2022/01/18 15:28:13;;;;;;;20.48;7.20;;;;;;;;;;5042477;28;20044;-83
2022/01/18 15:30:39;;;;;;;17.58;7.53;;;;;;;;;;5060072;28;20045;-82
2022/01/18 15:33:08;;;;;;;18.23;7.60;;;;;;;;;;5060156;28;20084;-81
2022/01/18 15:35:34;;;;;;;20.55;9.43;;;;;;;;;;5043830;28;20056;-81
2022/01/18 15:38:00;;;;;;;28.98;12.63;;;;;;;;;;5042930;28;20037;-82
2022/01/18 15:40:27;;;;;;;25.83;10.40;;;;;;;;;;5027496;28;20076;-81
2022/01/18 15:42:53;;;;;;;27.65;10.63;;;;;;;;;;5042050;28;20127;-83
2022/01/18 15:45:19;;;;;;;20.73;8.25;;;;;;;;;;5041396;28;20041;-83
2022/01/18 15:47:45;;;;;;;27.40;8.48;;;;;;;;;;5056902;28;20067;-80
2022/01/18 15:50:11;;;;;;;20.55;7.93;;;;;;;;;;5040240;28;20139;-81
2022/01/18 15:52:37;;;;;;;21.05;7.90;;;;;;;;;;5046415;28;20052;-82